Historique et archives des données météo des stations Météo Centre

Retrouvez les conditions météo en temps réel en cliquant ici...

Station météo de Orçay (41)


Altitude de la station : 145 m







Relevés météorologiques pour le 31/10/2020 à Orçay

Date
Heure
Températures Humidité Point de rosée Vitesse
du vent
Direction Rafales Windchill Pression Pluviométrie
Cumul
Date
Heure
Températures Humidité Point de rosée Vitesse
du vent
Direction Rafales Windchill Pression Pluviométrie
Cumul
31/10/2020 22:5917.0 °C78 %13.3 °C6 km/hS32 km/h17.2 1021 hPa0.2 mm
31/10/2020 22:4416.7 °C78 %12.8 °C8 km/hSE29 km/h16.7 1021 hPa0.2 mm
31/10/2020 22:2916.6 °C78 %12.8 °C5 km/hE29 km/h16.7 1021 hPa0.2 mm
31/10/2020 22:1416.6 °C77 %12.8 °C3 km/hSSO29 km/h16.7 1021 hPa0.2 mm
31/10/2020 21:5916.6 °C76 %12.2 °C16 km/hSSO29 km/h15.0 1021 hPa0.2 mm
31/10/2020 21:4416.6 °C76 %12.2 °C3 km/hS29 km/h16.7 1021 hPa0.2 mm
31/10/2020 21:2716.6 °C76 %12.2 °C2 km/hS29 km/h16.7 1021 hPa0.2 mm
31/10/2020 21:1316.6 °C76 %12.2 °C5 km/hSSE29 km/h16.7 1021 hPa0.2 mm
31/10/2020 20:5916.6 °C76 %12.2 °C5 km/hS29 km/h16.7 1021 hPa0.2 mm
31/10/2020 20:4416.7 °C75 %12.2 °C5 km/hSSO29 km/h16.7 1021 hPa0.2 mm
31/10/2020 20:3016.6 °C74 %12.2 °C5 km/hS29 km/h16.7 1021 hPa0.2 mm
31/10/2020 20:1416.7 °C74 %12.2 °C14 km/hSO29 km/h15.6 1021 hPa0.2 mm
31/10/2020 19:5816.8 °C73 %11.7 °C10 km/hS29 km/h16.7 1021 hPa0.2 mm
31/10/2020 19:4416.9 °C72 %11.7 °C5 km/hS29 km/h16.7 1021 hPa0.2 mm
31/10/2020 19:2917.0 °C71 %11.7 °C6 km/hSSO29 km/h17.2 1021 hPa0.2 mm
31/10/2020 19:1416.9 °C71 %11.7 °C8 km/hSSO29 km/h16.7 1021 hPa0.2 mm
31/10/2020 18:5916.8 °C71 %11.7 °C6 km/hSSO29 km/h16.7 1021 hPa0.2 mm
31/10/2020 18:4417.0 °C71 %11.7 °C3 km/hSO29 km/h17.2 1021 hPa0.2 mm
31/10/2020 18:2817.3 °C70 %11.7 °C8 km/hSO29 km/h17.2 1021 hPa0.2 mm
31/10/2020 18:1417.5 °C70 %12.2 °C18 km/hS29 km/h16.1 1021 hPa0.2 mm
31/10/2020 17:5917.7 °C70 %12.2 °C6 km/hS29 km/h17.8 1021 hPa0.2 mm
31/10/2020 17:4517.8 °C70 %12.2 °C5 km/hS29 km/h17.8 1021 hPa0.2 mm
31/10/2020 17:2917.9 °C70 %12.2 °C8 km/hS29 km/h17.8 1021 hPa0.2 mm
31/10/2020 17:1418.2 °C69 %12.2 °C3 km/hSSO29 km/h18.3 1021 hPa0.2 mm
31/10/2020 16:5918.3 °C68 %12.2 °C10 km/hS29 km/h18.3 1021 hPa0.2 mm
31/10/2020 16:4418.4 °C68 %12.2 °C10 km/hSSE29 km/h18.3 1021 hPa0.2 mm
31/10/2020 16:2918.7 °C67 %12.2 °C6 km/hS29 km/h18.9 1021 hPa0.2 mm
31/10/2020 16:1418.8 °C67 %12.8 °C6 km/hSSO29 km/h18.9 1021 hPa0.2 mm
31/10/2020 15:5818.7 °C66 %12.2 °C3 km/hOSO29 km/h18.9 1021 hPa0.2 mm
31/10/2020 15:4418.9 °C66 %12.2 °C3 km/hSSO29 km/h18.9 1021 hPa0.2 mm
31/10/2020 15:2919.1 °C65 %12.2 °C8 km/hSSO29 km/h18.9 1021 hPa0.2 mm
31/10/2020 15:1419.4 °C63 %12.2 °C2 km/hSO29 km/h19.4 1021 hPa0.2 mm
31/10/2020 14:5919.7 °C63 %12.2 °C6 km/hS29 km/h20.0 1021 hPa0.2 mm
31/10/2020 14:4419.8 °C62 %12.2 °C6 km/hSSO29 km/h20.0 1021 hPa0.2 mm
31/10/2020 14:2919.8 °C63 %12.2 °C6 km/hS29 km/h20.0 1021 hPa0.2 mm
31/10/2020 14:1419.7 °C62 %12.2 °C13 km/hSSE29 km/h18.9 1021 hPa0.2 mm
31/10/2020 13:5919.4 °C62 %11.7 °C14 km/hSSO29 km/h18.3 1021 hPa0.2 mm
31/10/2020 13:4419.1 °C63 %11.7 °C8 km/hSO29 km/h18.9 1022 hPa0.2 mm
31/10/2020 13:2918.7 °C66 %12.2 °C5 km/hSO18 km/h18.9 1022 hPa0.2 mm
31/10/2020 13:1418.1 °C69 %12.2 °C5 km/hS18 km/h18.3 1022 hPa0.2 mm
31/10/2020 12:5917.4 °C73 %12.8 °C2 km/hS18 km/h17.2 1022 hPa0.2 mm
31/10/2020 12:4417.1 °C74 %12.2 °C3 km/hS18 km/h17.2 1022 hPa0.2 mm
31/10/2020 12:2916.5 °C75 %12.2 °C3 km/hSSO18 km/h16.7 1022 hPa0.2 mm
31/10/2020 12:1416.3 °C78 %12.2 °C13 km/hSSO18 km/h15.6 1022 hPa0.2 mm
31/10/2020 11:5915.7 °C78 %11.7 °C3 km/hSSE18 km/h15.6 1023 hPa0.2 mm
31/10/2020 11:4415.3 °C81 %12.2 °C3 km/hS18 km/h15.6 1023 hPa0.2 mm
31/10/2020 11:3014.8 °C83 %12.2 °C6 km/hS16 km/h15.0 1023 hPa0.2 mm
31/10/2020 11:1513.9 °C86 %11.7 °C2 km/hS16 km/h13.9 1023 hPa0.2 mm
31/10/2020 11:0013.0 °C93 %12.2 °C3 km/hSO13 km/h12.8 1023 hPa0.2 mm
31/10/2020 10:4512.0 °C97 %11.7 °C3 km/hSO13 km/h12.2 1023 hPa0.2 mm
31/10/2020 10:3011.2 °C97 %10.6 °C3 km/hS11 km/h11.1 1023 hPa0.2 mm
31/10/2020 10:1410.3 °C97 %10.0 °C5 km/hSSE11 km/h10.6 1024 hPa0.2 mm
31/10/2020 09:589.6 °C97 %8.9 °C-SSE11 km/h9.4 1024 hPa0.2 mm
31/10/2020 09:449.3 °C97 %8.9 °C-SE11 km/h9.4 1024 hPa0.2 mm
31/10/2020 09:299.1 °C97 %8.9 °C2 km/hSSE11 km/h8.9 1023 hPa0.2 mm
31/10/2020 09:148.8 °C97 %8.3 °C3 km/hS11 km/h8.3 1023 hPa0.2 mm
31/10/2020 08:598.3 °C97 %7.8 °C2 km/hSO11 km/h8.3 1024 hPa0.2 mm
31/10/2020 08:447.8 °C97 %7.2 °C2 km/hS11 km/h7.8 1024 hPa-
31/10/2020 08:297.7 °C96 %7.2 °C-SE11 km/h7.8 1023 hPa-
31/10/2020 08:157.5 °C96 %7.2 °C-SSE11 km/h7.8 1023 hPa-
31/10/2020 07:597.4 °C96 %6.7 °C3 km/hSSE11 km/h6.7 1023 hPa-
31/10/2020 07:447.4 °C96 %6.7 °C2 km/hSSE11 km/h7.2 1023 hPa-
31/10/2020 07:307.4 °C96 %6.7 °C-S11 km/h7.2 1024 hPa-
31/10/2020 07:147.4 °C96 %6.7 °C3 km/hSSE11 km/h6.7 1023 hPa-
31/10/2020 06:597.5 °C96 %7.2 °C5 km/hSSO11 km/h7.2 1023 hPa-
31/10/2020 06:447.7 °C96 %7.2 °C-S11 km/h7.8 1024 hPa-
31/10/2020 06:297.8 °C96 %7.2 °C-SSE11 km/h7.8 1024 hPa-
31/10/2020 06:148.0 °C96 %7.2 °C-SSE11 km/h7.8 1024 hPa-
31/10/2020 05:598.1 °C96 %7.8 °C2 km/hSSE11 km/h8.3 1024 hPa-
31/10/2020 05:448.1 °C96 %7.8 °C3 km/hS11 km/h7.8 1024 hPa-
31/10/2020 05:298.1 °C96 %7.8 °C3 km/hS11 km/h7.8 1024 hPa-
31/10/2020 05:147.9 °C96 %7.2 °C6 km/hSSE11 km/h6.7 1024 hPa-
31/10/2020 04:597.8 °C96 %7.2 °C2 km/hS8 km/h7.8 1024 hPa-
31/10/2020 04:447.8 °C96 %7.2 °C-SSO8 km/h7.8 1024 hPa-
31/10/2020 04:297.8 °C96 %7.2 °C-SSE8 km/h7.8 1024 hPa-
31/10/2020 04:147.6 °C96 %7.2 °C-SSE8 km/h7.8 1024 hPa-
31/10/2020 03:597.1 °C96 %6.7 °C-SSE8 km/h7.2 1024 hPa-
31/10/2020 03:446.5 °C95 %5.6 °C-S3 km/h6.7 1024 hPa-
31/10/2020 03:306.3 °C95 %5.6 °C-SSO2 km/h6.1 1024 hPa-
31/10/2020 03:156.3 °C95 %5.6 °C-SSO2 km/h6.1 1024 hPa-
31/10/2020 03:006.4 °C95 %5.6 °C-SSO2 km/h6.7 1025 hPa-
31/10/2020 02:456.4 °C95 %5.6 °C-SSO2 km/h6.7 1025 hPa-
31/10/2020 02:306.4 °C95 %5.6 °C-SSO2 km/h6.7 1025 hPa-
31/10/2020 02:156.0 °C95 %5.6 °C-SSO2 km/h6.1 1025 hPa-
31/10/2020 02:005.2 °C94 %4.4 °C---5.0 1025 hPa-
31/10/2020 01:454.9 °C93 %3.9 °C---5.0 1025 hPa-
31/10/2020 01:305.0 °C92 %3.9 °C---5.0 1025 hPa-
31/10/2020 01:155.2 °C92 %3.9 °C---5.0 1026 hPa-
31/10/2020 01:005.3 °C92 %3.9 °C---5.6 1026 hPa-
31/10/2020 00:455.5 °C92 %4.4 °C---5.6 1026 hPa-
31/10/2020 00:305.7 °C92 %4.4 °C---5.6 1026 hPa-
31/10/2020 00:145.8 °C92 %4.4 °C---5.6 1026 hPa-


Le temps aujourd'hui à Orçay - 41

Minima :

Température : 4.9 °C
Humidité : 62 %
Point de rosée : 3.9 °C
Vent moyen : 2 km/h
Windchill : 5.0
Pression atm. : 1021 hPa
Maxima :

Température : 19.8 °C
Humidité : 97 %
Point de rosée : 13.3 °C
Vent moyen : 18 km/h
Windchill : 20.0
Pression atm. : 1026 hPa
Rafales max : 32 km/h
Cumul de pluie sur 24H : 0.2 mm

Orçay est une commune du département Loir-et-Cher (41).
La station météorologique du réseau de l'association Météo Centre la plus proche de Orçay est celle de Vierzon



Icône Facebook Association Météo Centre Icône Twitter Association Météo Centre Icône Chaîne Youtube Association Météo Centre Icône contact Association Météo Centre Icône Insta Association Météo Centre